sensor_id;sensor_type;location;lat;lon;timestamp;temperature;humidity
9949;DHT22;5013;51.840;8.276;2023-02-21T00:01:20;8.40;99.90
9949;DHT22;5013;51.840;8.276;2023-02-21T00:04:04;8.50;99.90
9949;DHT22;5013;51.840;8.276;2023-02-21T00:06:48;8.50;99.90
9949;DHT22;5013;51.840;8.276;2023-02-21T00:09:32;8.50;99.90
9949;DHT22;5013;51.840;8.276;2023-02-21T00:12:16;8.50;99.90
9949;DHT22;5013;51.840;8.276;2023-02-21T00:15:00;8.50;99.90
9949;DHT22;5013;51.840;8.276;2023-02-21T00:17:44;8.50;99.90
9949;DHT22;5013;51.840;8.276;2023-02-21T00:20:28;8.50;99.90
9949;DHT22;5013;51.840;8.276;2023-02-21T00:23:12;8.50;99.90
9949;DHT22;5013;51.840;8.276;2023-02-21T00:25:56;8.60;99.90
9949;DHT22;5013;51.840;8.276;2023-02-21T00:28:40;8.60;99.90
9949;DHT22;5013;51.840;8.276;2023-02-21T00:31:24;8.60;99.90
9949;DHT22;5013;51.840;8.276;2023-02-21T00:34:08;8.60;99.90
9949;DHT22;5013;51.840;8.276;2023-02-21T00:36:52;8.60;99.90
9949;DHT22;5013;51.840;8.276;2023-02-21T00:39:36;8.60;99.90
9949;DHT22;5013;51.840;8.276;2023-02-21T00:42:20;8.60;99.90
9949;DHT22;5013;51.840;8.276;2023-02-21T00:45:05;8.60;99.90
9949;DHT22;5013;51.840;8.276;2023-02-21T00:47:49;8.50;99.90
9949;DHT22;5013;51.840;8.276;2023-02-21T00:50:33;8.60;99.90
9949;DHT22;5013;51.840;8.276;2023-02-21T00:53:17;8.60;99.90
9949;DHT22;5013;51.840;8.276;2023-02-21T00:56:01;8.60;99.90
9949;DHT22;5013;51.840;8.276;2023-02-21T00:58:45;8.60;99.90
9949;DHT22;5013;51.840;8.276;2023-02-21T01:01:29;8.50;99.90
9949;DHT22;5013;51.840;8.276;2023-02-21T01:04:13;8.60;99.90
9949;DHT22;5013;51.840;8.276;2023-02-21T01:06:57;8.60;99.90
9949;DHT22;5013;51.840;8.276;2023-02-21T01:09:41;8.60;99.90
9949;DHT22;5013;51.840;8.276;2023-02-21T01:12:25;8.50;99.90
9949;DHT22;5013;51.840;8.276;2023-02-21T01:15:09;8.50;99.90
9949;DHT22;5013;51.840;8.276;2023-02-21T01:17:53;8.50;99.90
9949;DHT22;5013;51.840;8.276;2023-02-21T01:20:37;8.50;99.90
9949;DHT22;5013;51.840;8.276;2023-02-21T01:23:21;8.60;99.90
9949;DHT22;5013;51.840;8.276;2023-02-21T01:26:08;8.50;99.90
9949;DHT22;5013;51.840;8.276;2023-02-21T01:28:52;8.50;99.90
9949;DHT22;5013;51.840;8.276;2023-02-21T01:31:36;8.50;99.90
9949;DHT22;5013;51.840;8.276;2023-02-21T01:34:20;8.60;99.90
9949;DHT22;5013;51.840;8.276;2023-02-21T01:37:04;8.60;99.90
9949;DHT22;5013;51.840;8.276;2023-02-21T01:39:49;8.60;99.90
9949;DHT22;5013;51.840;8.276;2023-02-21T01:42:33;8.60;99.90
9949;DHT22;5013;51.840;8.276;2023-02-21T01:48:06;8.60;99.90
9949;DHT22;5013;51.840;8.276;2023-02-21T01:50:52;8.60;99.90
9949;DHT22;5013;51.840;8.276;2023-02-21T01:53:36;8.60;99.90
9949;DHT22;5013;51.840;8.276;2023-02-21T01:56:21;8.60;99.90
9949;DHT22;5013;51.840;8.276;2023-02-21T01:59:05;8.60;99.90
9949;DHT22;5013;51.840;8.276;2023-02-21T02:01:53;8.50;99.90
9949;DHT22;5013;51.840;8.276;2023-02-21T02:04:39;8.50;99.90
9949;DHT22;5013;51.840;8.276;2023-02-21T02:07:24;8.60;99.90
9949;DHT22;5013;51.840;8.276;2023-02-21T02:10:09;8.50;99.90
9949;DHT22;5013;51.840;8.276;2023-02-21T02:18:52;8.50;99.90
9949;DHT22;5013;51.840;8.276;2023-02-21T02:21:49;8.50;99.90
9949;DHT22;5013;51.840;8.276;2023-02-21T02:27:36;8.50;99.90
9949;DHT22;5013;51.840;8.276;2023-02-21T02:30:32;8.40;99.90
9949;DHT22;5013;51.840;8.276;2023-02-21T02:41:40;8.40;99.90
9949;DHT22;5013;51.840;8.276;2023-02-21T02:44:17;8.40;99.90
9949;DHT22;5013;51.840;8.276;2023-02-21T02:46:46;8.50;99.90
9949;DHT22;5013;51.840;8.276;2023-02-21T02:49:21;8.50;99.90
9949;DHT22;5013;51.840;8.276;2023-02-21T02:51:48;8.50;99.90
9949;DHT22;5013;51.840;8.276;2023-02-21T02:54:14;8.40;99.90
9949;DHT22;5013;51.840;8.276;2023-02-21T02:56:40;8.50;99.90
9949;DHT22;5013;51.840;8.276;2023-02-21T02:59:10;8.50;99.90
9949;DHT22;5013;51.840;8.276;2023-02-21T03:15:51;8.50;99.90
9949;DHT22;5013;51.840;8.276;2023-02-21T03:18:28;8.50;99.90
9949;DHT22;5013;51.840;8.276;2023-02-21T03:20:58;8.50;99.90
9949;DHT22;5013;51.840;8.276;2023-02-21T03:23:27;8.40;99.90
9949;DHT22;5013;51.840;8.276;2023-02-21T03:25:56;8.40;99.90
9949;DHT22;5013;51.840;8.276;2023-02-21T03:28:24;8.40;99.90
9949;DHT22;5013;51.840;8.276;2023-02-21T03:30:52;8.40;99.90
9949;DHT22;5013;51.840;8.276;2023-02-21T03:33:20;8.40;99.90
9949;DHT22;5013;51.840;8.276;2023-02-21T03:35:47;8.40;99.90
9949;DHT22;5013;51.840;8.276;2023-02-21T03:38:12;8.40;99.90
9949;DHT22;5013;51.840;8.276;2023-02-21T03:40:38;8.40;99.90
9949;DHT22;5013;51.840;8.276;2023-02-21T03:43:05;8.40;99.90
9949;DHT22;5013;51.840;8.276;2023-02-21T03:45:34;8.40;99.90
9949;DHT22;5013;51.840;8.276;2023-02-21T03:48:00;8.40;99.90
9949;DHT22;5013;51.840;8.276;2023-02-21T03:50:25;8.40;99.90
9949;DHT22;5013;51.840;8.276;2023-02-21T03:52:51;8.40;99.90
9949;DHT22;5013;51.840;8.276;2023-02-21T03:55:18;8.40;99.90
9949;DHT22;5013;51.840;8.276;2023-02-21T03:57:44;8.40;99.90
9949;DHT22;5013;51.840;8.276;2023-02-21T04:00:11;8.40;99.90
9949;DHT22;5013;51.840;8.276;2023-02-21T04:02:37;8.40;99.90
9949;DHT22;5013;51.840;8.276;2023-02-21T04:05:03;8.40;99.90
9949;DHT22;5013;51.840;8.276;2023-02-21T04:07:28;8.40;99.90
9949;DHT22;5013;51.840;8.276;2023-02-21T04:09:54;8.40;99.90
9949;DHT22;5013;51.840;8.276;2023-02-21T04:12:20;8.40;99.90
9949;DHT22;5013;51.840;8.276;2023-02-21T04:14:46;8.40;99.90
9949;DHT22;5013;51.840;8.276;2023-02-21T04:17:11;8.40;99.90
9949;DHT22;5013;51.840;8.276;2023-02-21T04:19:37;8.40;99.90
9949;DHT22;5013;51.840;8.276;2023-02-21T04:22:03;8.40;99.90
9949;DHT22;5013;51.840;8.276;2023-02-21T04:24:28;8.40;99.90
9949;DHT22;5013;51.840;8.276;2023-02-21T04:26:54;8.40;99.90
9949;DHT22;5013;51.840;8.276;2023-02-21T04:29:19;8.40;99.90
9949;DHT22;5013;51.840;8.276;2023-02-21T04:31:45;8.40;99.90
9949;DHT22;5013;51.840;8.276;2023-02-21T04:34:11;8.40;99.90
9949;DHT22;5013;51.840;8.276;2023-02-21T04:36:36;8.40;99.90
9949;DHT22;5013;51.840;8.276;2023-02-21T04:39:04;8.40;99.90
9949;DHT22;5013;51.840;8.276;2023-02-21T04:41:30;8.40;99.90
9949;DHT22;5013;51.840;8.276;2023-02-21T04:43:56;8.40;99.90
9949;DHT22;5013;51.840;8.276;2023-02-21T04:46:21;8.40;99.90
9949;DHT22;5013;51.840;8.276;2023-02-21T04:48:49;8.40;99.90
9949;DHT22;5013;51.840;8.276;2023-02-21T04:51:17;8.40;99.90
9949;DHT22;5013;51.840;8.276;2023-02-21T04:53:46;8.40;99.90
9949;DHT22;5013;51.840;8.276;2023-02-21T04:56:12;8.40;99.90
9949;DHT22;5013;51.840;8.276;2023-02-21T04:58:38;8.40;99.90
9949;DHT22;5013;51.840;8.276;2023-02-21T05:01:04;8.40;99.90
9949;DHT22;5013;51.840;8.276;2023-02-21T05:03:29;8.40;99.90
9949;DHT22;5013;51.840;8.276;2023-02-21T05:05:55;8.40;99.90
9949;DHT22;5013;51.840;8.276;2023-02-21T05:08:21;8.30;99.90
9949;DHT22;5013;51.840;8.276;2023-02-21T05:10:48;8.40;99.90
9949;DHT22;5013;51.840;8.276;2023-02-21T05:13:14;8.30;99.90
9949;DHT22;5013;51.840;8.276;2023-02-21T05:15:39;8.40;99.90
9949;DHT22;5013;51.840;8.276;2023-02-21T05:18:05;8.30;99.90
9949;DHT22;5013;51.840;8.276;2023-02-21T05:20:31;8.30;99.90
9949;DHT22;5013;51.840;8.276;2023-02-21T05:22:56;8.40;99.90
9949;DHT22;5013;51.840;8.276;2023-02-21T05:25:22;8.30;99.90
9949;DHT22;5013;51.840;8.276;2023-02-21T05:27:49;8.30;99.90
9949;DHT22;5013;51.840;8.276;2023-02-21T05:30:17;8.30;99.90
9949;DHT22;5013;51.840;8.276;2023-02-21T05:32:43;8.30;99.90
9949;DHT22;5013;51.840;8.276;2023-02-21T05:35:10;8.30;99.90
9949;DHT22;5013;51.840;8.276;2023-02-21T05:37:36;8.30;99.90
9949;DHT22;5013;51.840;8.276;2023-02-21T05:40:02;8.30;99.90
9949;DHT22;5013;51.840;8.276;2023-02-21T05:42:29;8.30;99.90
9949;DHT22;5013;51.840;8.276;2023-02-21T05:44:55;8.30;99.90
9949;DHT22;5013;51.840;8.276;2023-02-21T05:47:20;8.30;99.90
9949;DHT22;5013;51.840;8.276;2023-02-21T05:49:46;8.30;99.90
9949;DHT22;5013;51.840;8.276;2023-02-21T05:52:14;8.30;99.90
9949;DHT22;5013;51.840;8.276;2023-02-21T05:54:40;8.40;99.90
9949;DHT22;5013;51.840;8.276;2023-02-21T05:57:06;8.40;99.90
9949;DHT22;5013;51.840;8.276;2023-02-21T05:59:31;8.40;99.90
9949;DHT22;5013;51.840;8.276;2023-02-21T06:01:57;8.30;99.90
9949;DHT22;5013;51.840;8.276;2023-02-21T06:04:23;8.30;99.90
9949;DHT22;5013;51.840;8.276;2023-02-21T06:06:49;8.30;99.90
9949;DHT22;5013;51.840;8.276;2023-02-21T06:09:16;8.30;99.90
9949;DHT22;5013;51.840;8.276;2023-02-21T06:11:43;8.30;99.90
9949;DHT22;5013;51.840;8.276;2023-02-21T06:14:18;8.30;99.90
9949;DHT22;5013;51.840;8.276;2023-02-21T06:16:44;8.30;99.90
9949;DHT22;5013;51.840;8.276;2023-02-21T06:19:11;8.20;99.90
9949;DHT22;5013;51.840;8.276;2023-02-21T06:21:37;8.30;99.90
9949;DHT22;5013;51.840;8.276;2023-02-21T06:24:04;8.30;99.90
9949;DHT22;5013;51.840;8.276;2023-02-21T06:26:30;8.30;99.90
9949;DHT22;5013;51.840;8.276;2023-02-21T06:28:55;8.20;99.90
9949;DHT22;5013;51.840;8.276;2023-02-21T06:31:21;8.30;99.90
9949;DHT22;5013;51.840;8.276;2023-02-21T06:33:48;8.30;99.90
9949;DHT22;5013;51.840;8.276;2023-02-21T06:36:17;8.20;99.90
9949;DHT22;5013;51.840;8.276;2023-02-21T06:38:47;8.20;99.90
9949;DHT22;5013;51.840;8.276;2023-02-21T06:41:15;8.20;99.90
9949;DHT22;5013;51.840;8.276;2023-02-21T06:43:41;8.20;99.90
9949;DHT22;5013;51.840;8.276;2023-02-21T06:46:07;8.30;99.90
9949;DHT22;5013;51.840;8.276;2023-02-21T06:48:32;8.30;99.90
9949;DHT22;5013;51.840;8.276;2023-02-21T06:50:58;8.30;99.90
9949;DHT22;5013;51.840;8.276;2023-02-21T06:53:24;8.30;99.90
9949;DHT22;5013;51.840;8.276;2023-02-21T06:55:50;8.30;99.90
9949;DHT22;5013;51.840;8.276;2023-02-21T06:58:16;8.30;99.90
9949;DHT22;5013;51.840;8.276;2023-02-21T07:00:41;8.30;99.90
9949;DHT22;5013;51.840;8.276;2023-02-21T07:03:07;8.40;99.90
9949;DHT22;5013;51.840;8.276;2023-02-21T07:05:32;8.40;99.90
9949;DHT22;5013;51.840;8.276;2023-02-21T07:08:02;8.40;99.90
9949;DHT22;5013;51.840;8.276;2023-02-21T07:10:28;8.40;99.90
9949;DHT22;5013;51.840;8.276;2023-02-21T07:12:55;8.30;99.90
9949;DHT22;5013;51.840;8.276;2023-02-21T07:15:21;8.40;99.90
9949;DHT22;5013;51.840;8.276;2023-02-21T07:17:46;8.40;99.90
9949;DHT22;5013;51.840;8.276;2023-02-21T07:20:12;8.40;99.90
9949;DHT22;5013;51.840;8.276;2023-02-21T07:22:38;8.50;99.90
9949;DHT22;5013;51.840;8.276;2023-02-21T07:25:04;8.40;99.90
9949;DHT22;5013;51.840;8.276;2023-02-21T07:27:30;8.40;99.90
9949;DHT22;5013;51.840;8.276;2023-02-21T07:29:55;8.40;99.90
9949;DHT22;5013;51.840;8.276;2023-02-21T07:32:21;8.40;99.90
9949;DHT22;5013;51.840;8.276;2023-02-21T07:34:47;8.40;99.90
9949;DHT22;5013;51.840;8.276;2023-02-21T07:37:13;8.40;99.90
9949;DHT22;5013;51.840;8.276;2023-02-21T07:39:39;8.40;99.90
9949;DHT22;5013;51.840;8.276;2023-02-21T07:42:05;8.40;99.90
9949;DHT22;5013;51.840;8.276;2023-02-21T07:44:32;8.40;99.90
9949;DHT22;5013;51.840;8.276;2023-02-21T07:46:58;8.30;99.90
9949;DHT22;5013;51.840;8.276;2023-02-21T07:49:24;8.40;99.90
9949;DHT22;5013;51.840;8.276;2023-02-21T07:51:50;8.40;99.90
9949;DHT22;5013;51.840;8.276;2023-02-21T07:54:16;8.40;99.90
9949;DHT22;5013;51.840;8.276;2023-02-21T07:56:43;8.40;99.90
9949;DHT22;5013;51.840;8.276;2023-02-21T07:59:09;8.50;99.90
9949;DHT22;5013;51.840;8.276;2023-02-21T08:01:35;8.40;99.90
9949;DHT22;5013;51.840;8.276;2023-02-21T08:04:00;8.40;99.90
9949;DHT22;5013;51.840;8.276;2023-02-21T08:06:26;8.40;99.90
9949;DHT22;5013;51.840;8.276;2023-02-21T08:08:51;8.40;99.90
9949;DHT22;5013;51.840;8.276;2023-02-21T08:11:17;8.40;99.90
9949;DHT22;5013;51.840;8.276;2023-02-21T08:13:42;8.50;99.90
9949;DHT22;5013;51.840;8.276;2023-02-21T08:16:08;8.50;99.90
9949;DHT22;5013;51.840;8.276;2023-02-21T08:18:34;8.50;99.90
9949;DHT22;5013;51.840;8.276;2023-02-21T08:20:59;8.50;99.90
9949;DHT22;5013;51.840;8.276;2023-02-21T08:23:25;8.40;99.90
9949;DHT22;5013;51.840;8.276;2023-02-21T08:25:51;8.50;99.90
9949;DHT22;5013;51.840;8.276;2023-02-21T08:28:16;8.40;99.90
9949;DHT22;5013;51.840;8.276;2023-02-21T08:30:42;8.50;99.90
9949;DHT22;5013;51.840;8.276;2023-02-21T08:33:08;8.50;99.90
9949;DHT22;5013;51.840;8.276;2023-02-21T08:35:34;8.50;99.90
9949;DHT22;5013;51.840;8.276;2023-02-21T08:37:59;8.50;99.90
9949;DHT22;5013;51.840;8.276;2023-02-21T08:40:31;8.50;99.90
9949;DHT22;5013;51.840;8.276;2023-02-21T08:42:58;8.50;99.90
9949;DHT22;5013;51.840;8.276;2023-02-21T08:45:25;8.50;99.90
9949;DHT22;5013;51.840;8.276;2023-02-21T08:47:51;8.50;99.90
9949;DHT22;5013;51.840;8.276;2023-02-21T08:50:18;8.60;99.90
9949;DHT22;5013;51.840;8.276;2023-02-21T08:52:45;8.50;99.90
9949;DHT22;5013;51.840;8.276;2023-02-21T08:55:11;8.60;99.90
9949;DHT22;5013;51.840;8.276;2023-02-21T08:57:37;8.60;99.90
9949;DHT22;5013;51.840;8.276;2023-02-21T09:00:04;8.60;99.90
9949;DHT22;5013;51.840;8.276;2023-02-21T09:02:36;8.60;99.90
9949;DHT22;5013;51.840;8.276;2023-02-21T09:05:11;8.50;99.90
9949;DHT22;5013;51.840;8.276;2023-02-21T09:07:37;8.60;99.90
9949;DHT22;5013;51.840;8.276;2023-02-21T09:10:04;8.50;99.90
9949;DHT22;5013;51.840;8.276;2023-02-21T09:12:30;8.50;99.90
9949;DHT22;5013;51.840;8.276;2023-02-21T09:14:55;8.50;99.90
9949;DHT22;5013;51.840;8.276;2023-02-21T09:17:21;8.50;99.90
9949;DHT22;5013;51.840;8.276;2023-02-21T09:19:47;8.60;99.90
9949;DHT22;5013;51.840;8.276;2023-02-21T09:22:12;8.50;99.90
9949;DHT22;5013;51.840;8.276;2023-02-21T09:24:40;8.60;99.90
9949;DHT22;5013;51.840;8.276;2023-02-21T09:27:06;8.50;99.90
9949;DHT22;5013;51.840;8.276;2023-02-21T09:29:34;8.50;99.90
9949;DHT22;5013;51.840;8.276;2023-02-21T09:32:00;8.50;99.90
9949;DHT22;5013;51.840;8.276;2023-02-21T09:34:26;8.50;99.90
9949;DHT22;5013;51.840;8.276;2023-02-21T09:36:52;8.60;99.90
9949;DHT22;5013;51.840;8.276;2023-02-21T09:39:20;8.60;99.90
9949;DHT22;5013;51.840;8.276;2023-02-21T09:41:47;8.60;99.90
9949;DHT22;5013;51.840;8.276;2023-02-21T09:44:18;8.60;99.90
9949;DHT22;5013;51.840;8.276;2023-02-21T09:46:48;8.60;99.90
9949;DHT22;5013;51.840;8.276;2023-02-21T09:49:29;8.60;99.90
9949;DHT22;5013;51.840;8.276;2023-02-21T09:51:57;8.70;99.90
9949;DHT22;5013;51.840;8.276;2023-02-21T09:57:00;8.70;99.90
9949;DHT22;5013;51.840;8.276;2023-02-21T09:59:25;8.70;99.90
9949;DHT22;5013;51.840;8.276;2023-02-21T10:10:16;8.70;99.90
9949;DHT22;5013;51.840;8.276;2023-02-21T10:12:45;8.70;99.90
9949;DHT22;5013;51.840;8.276;2023-02-21T10:20:51;8.80;99.90
9949;DHT22;5013;51.840;8.276;2023-02-21T10:23:22;8.80;99.90
9949;DHT22;5013;51.840;8.276;2023-02-21T10:25:50;8.80;99.90
9949;DHT22;5013;51.840;8.276;2023-02-21T10:28:20;8.90;99.90
9949;DHT22;5013;51.840;8.276;2023-02-21T10:30:48;8.90;99.90
9949;DHT22;5013;51.840;8.276;2023-02-21T10:33:15;9.00;99.90
9949;DHT22;5013;51.840;8.276;2023-02-21T10:35:41;9.00;99.90
9949;DHT22;5013;51.840;8.276;2023-02-21T10:38:09;9.00;99.90
9949;DHT22;5013;51.840;8.276;2023-02-21T10:40:39;9.00;99.90
9949;DHT22;5013;51.840;8.276;2023-02-21T10:43:12;9.10;99.90
9949;DHT22;5013;51.840;8.276;2023-02-21T10:45:50;9.20;99.90
9949;DHT22;5013;51.840;8.276;2023-02-21T10:48:19;9.20;99.90
9949;DHT22;5013;51.840;8.276;2023-02-21T10:50:51;9.30;99.90
9949;DHT22;5013;51.840;8.276;2023-02-21T10:53:24;9.40;99.90
9949;DHT22;5013;51.840;8.276;2023-02-21T10:56:26;9.40;99.90
9949;DHT22;5013;51.840;8.276;2023-02-21T10:59:03;9.40;99.90
9949;DHT22;5013;51.840;8.276;2023-02-21T11:01:50;9.40;99.90
9949;DHT22;5013;51.840;8.276;2023-02-21T11:09:42;9.40;99.90
9949;DHT22;5013;51.840;8.276;2023-02-21T11:12:27;9.50;99.90
9949;DHT22;5013;51.840;8.276;2023-02-21T11:17:28;9.50;99.90
9949;DHT22;5013;51.840;8.276;2023-02-21T11:27:37;9.50;99.90
9949;DHT22;5013;51.840;8.276;2023-02-21T11:30:13;9.50;99.90
9949;DHT22;5013;51.840;8.276;2023-02-21T11:32:41;9.70;99.90
9949;DHT22;5013;51.840;8.276;2023-02-21T11:35:34;9.70;84.00
9949;DHT22;5013;51.840;8.276;2023-02-21T11:38:01;9.60;58.90
9949;DHT22;5013;51.840;8.276;2023-02-21T11:40:44;9.70;99.90
9949;DHT22;5013;51.840;8.276;2023-02-21T11:43:27;9.70;99.90
9949;DHT22;5013;51.840;8.276;2023-02-21T11:46:20;9.90;99.90
9949;DHT22;5013;51.840;8.276;2023-02-21T11:51:29;10.00;1.00
9949;DHT22;5013;51.840;8.276;2023-02-21T11:53:56;10.00;1.00
9949;DHT22;5013;51.840;8.276;2023-02-21T12:18:57;9.60;99.90
9949;DHT22;5013;51.840;8.276;2023-02-21T12:24:27;9.60;57.60
9949;DHT22;5013;51.840;8.276;2023-02-21T12:27:01;9.60;73.60
9949;DHT22;5013;51.840;8.276;2023-02-21T12:35:03;9.70;1.00
9949;DHT22;5013;51.840;8.276;2023-02-21T12:43:03;9.70;1.00
9949;DHT22;5013;51.840;8.276;2023-02-21T12:51:06;9.70;85.10
9949;DHT22;5013;51.840;8.276;2023-02-21T12:54:00;9.60;5.80
9949;DHT22;5013;51.840;8.276;2023-02-21T12:56:32;9.70;29.90
9949;DHT22;5013;51.840;8.276;2023-02-21T12:59:03;9.70;1.00
9949;DHT22;5013;51.840;8.276;2023-02-21T13:01:39;9.70;1.00
9949;DHT22;5013;51.840;8.276;2023-02-21T13:07:03;9.80;84.40
9949;DHT22;5013;51.840;8.276;2023-02-21T13:09:47;9.80;17.30
9949;DHT22;5013;51.840;8.276;2023-02-21T13:12:18;9.90;1.00
9949;DHT22;5013;51.840;8.276;2023-02-21T13:14:52;9.80;1.00
9949;DHT22;5013;51.840;8.276;2023-02-21T13:17:19;9.80;1.00
9949;DHT22;5013;51.840;8.276;2023-02-21T13:19:52;9.70;1.00
9949;DHT22;5013;51.840;8.276;2023-02-21T13:22:37;9.70;1.00
9949;DHT22;5013;51.840;8.276;2023-02-21T13:28:21;9.60;1.00
9949;DHT22;5013;51.840;8.276;2023-02-21T13:30:56;9.70;1.00
9949;DHT22;5013;51.840;8.276;2023-02-21T13:33:39;9.60;1.00
9949;DHT22;5013;51.840;8.276;2023-02-21T13:36:32;9.60;1.00
9949;DHT22;5013;51.840;8.276;2023-02-21T13:39:16;9.70;1.00
9949;DHT22;5013;51.840;8.276;2023-02-21T13:42:17;9.50;1.00
9949;DHT22;5013;51.840;8.276;2023-02-21T13:44:53;9.50;1.00
9949;DHT22;5013;51.840;8.276;2023-02-21T13:47:20;9.50;1.00
9949;DHT22;5013;51.840;8.276;2023-02-21T13:49:50;9.50;1.00
9949;DHT22;5013;51.840;8.276;2023-02-21T14:06:14;9.50;73.60
9949;DHT22;5013;51.840;8.276;2023-02-21T14:10:49;9.50;90.00
9949;DHT22;5013;51.840;8.276;2023-02-21T14:13:47;9.50;99.90
9949;DHT22;5013;51.840;8.276;2023-02-21T14:18:50;9.50;99.90
9949;DHT22;5013;51.840;8.276;2023-02-21T14:21:56;9.50;77.80
9949;DHT22;5013;51.840;8.276;2023-02-21T14:24:25;9.40;36.00
9949;DHT22;5013;51.840;8.276;2023-02-21T14:37:36;9.40;99.90
9949;DHT22;5013;51.840;8.276;2023-02-21T14:40:16;9.30;99.90
9949;DHT22;5013;51.840;8.276;2023-02-21T15:03:11;9.30;99.90
9949;DHT22;5013;51.840;8.276;2023-02-21T15:08:22;9.30;99.90
9949;DHT22;5013;51.840;8.276;2023-02-21T15:10:50;9.30;99.90
9949;DHT22;5013;51.840;8.276;2023-02-21T15:13:23;9.40;99.90
9949;DHT22;5013;51.840;8.276;2023-02-21T15:16:02;9.30;99.90
9949;DHT22;5013;51.840;8.276;2023-02-21T15:18:37;9.40;99.90
9949;DHT22;5013;51.840;8.276;2023-02-21T15:23:39;9.40;99.90
9949;DHT22;5013;51.840;8.276;2023-02-21T15:26:26;9.40;99.90
9949;DHT22;5013;51.840;8.276;2023-02-21T15:29:10;9.40;99.90
9949;DHT22;5013;51.840;8.276;2023-02-21T15:31:53;9.40;99.90
9949;DHT22;5013;51.840;8.276;2023-02-21T15:34:24;9.40;99.90
9949;DHT22;5013;51.840;8.276;2023-02-21T15:39:28;9.40;99.90
9949;DHT22;5013;51.840;8.276;2023-02-21T15:41:55;9.30;99.90
9949;DHT22;5013;51.840;8.276;2023-02-21T15:44:28;9.30;99.90
9949;DHT22;5013;51.840;8.276;2023-02-21T15:47:10;9.40;99.90
9949;DHT22;5013;51.840;8.276;2023-02-21T15:49:44;9.40;99.90
9949;DHT22;5013;51.840;8.276;2023-02-21T16:00:44;9.30;99.90
9949;DHT22;5013;51.840;8.276;2023-02-21T16:08:53;9.30;99.90
9949;DHT22;5013;51.840;8.276;2023-02-21T16:11:36;9.30;99.90
9949;DHT22;5013;51.840;8.276;2023-02-21T16:14:03;9.30;99.90
9949;DHT22;5013;51.840;8.276;2023-02-21T16:16:36;9.30;99.90
9949;DHT22;5013;51.840;8.276;2023-02-21T16:19:01;9.30;99.90
9949;DHT22;5013;51.840;8.276;2023-02-21T16:21:28;9.40;99.90
9949;DHT22;5013;51.840;8.276;2023-02-21T16:23:54;9.40;99.90
9949;DHT22;5013;51.840;8.276;2023-02-21T16:26:23;9.40;99.90
9949;DHT22;5013;51.840;8.276;2023-02-21T16:28:53;9.30;99.90
9949;DHT22;5013;51.840;8.276;2023-02-21T16:33:50;9.30;99.90
9949;DHT22;5013;51.840;8.276;2023-02-21T16:36:25;9.30;99.90
9949;DHT22;5013;51.840;8.276;2023-02-21T16:38:52;9.20;99.90
9949;DHT22;5013;51.840;8.276;2023-02-21T16:41:18;9.30;99.90
9949;DHT22;5013;51.840;8.276;2023-02-21T16:43:43;9.20;99.90
9949;DHT22;5013;51.840;8.276;2023-02-21T16:46:10;9.20;99.90
9949;DHT22;5013;51.840;8.276;2023-02-21T16:48:36;9.20;99.90
9949;DHT22;5013;51.840;8.276;2023-02-21T16:51:06;9.10;99.90
9949;DHT22;5013;51.840;8.276;2023-02-21T16:53:32;9.20;99.90
9949;DHT22;5013;51.840;8.276;2023-02-21T16:55:59;9.20;99.90
9949;DHT22;5013;51.840;8.276;2023-02-21T16:58:39;9.10;99.90
9949;DHT22;5013;51.840;8.276;2023-02-21T17:01:14;9.20;99.90
9949;DHT22;5013;51.840;8.276;2023-02-21T17:03:40;9.10;99.90
9949;DHT22;5013;51.840;8.276;2023-02-21T17:06:07;9.10;99.90
9949;DHT22;5013;51.840;8.276;2023-02-21T17:08:38;9.10;99.90
9949;DHT22;5013;51.840;8.276;2023-02-21T17:11:04;9.10;99.90
9949;DHT22;5013;51.840;8.276;2023-02-21T17:13:30;9.10;99.90
9949;DHT22;5013;51.840;8.276;2023-02-21T17:15:55;9.20;99.90
9949;DHT22;5013;51.840;8.276;2023-02-21T17:18:21;9.20;99.90
9949;DHT22;5013;51.840;8.276;2023-02-21T17:20:46;9.20;99.90
9949;DHT22;5013;51.840;8.276;2023-02-21T17:23:12;9.20;99.90
9949;DHT22;5013;51.840;8.276;2023-02-21T17:25:38;9.20;99.90
9949;DHT22;5013;51.840;8.276;2023-02-21T17:28:03;9.20;99.90
9949;DHT22;5013;51.840;8.276;2023-02-21T17:30:29;9.10;99.90
9949;DHT22;5013;51.840;8.276;2023-02-21T17:32:55;9.20;99.90
9949;DHT22;5013;51.840;8.276;2023-02-21T17:35:21;9.20;99.90
9949;DHT22;5013;51.840;8.276;2023-02-21T17:37:49;9.20;99.90
9949;DHT22;5013;51.840;8.276;2023-02-21T17:40:17;9.30;99.90
9949;DHT22;5013;51.840;8.276;2023-02-21T17:42:43;9.30;99.90
9949;DHT22;5013;51.840;8.276;2023-02-21T17:45:09;9.30;99.90
9949;DHT22;5013;51.840;8.276;2023-02-21T17:47:35;9.30;99.90
9949;DHT22;5013;51.840;8.276;2023-02-21T17:50:01;9.30;99.90
9949;DHT22;5013;51.840;8.276;2023-02-21T17:52:28;9.30;99.90
9949;DHT22;5013;51.840;8.276;2023-02-21T17:54:53;9.30;99.90
9949;DHT22;5013;51.840;8.276;2023-02-21T17:57:19;9.30;99.90
9949;DHT22;5013;51.840;8.276;2023-02-21T17:59:45;9.40;99.90
9949;DHT22;5013;51.840;8.276;2023-02-21T18:02:11;9.40;99.90
9949;DHT22;5013;51.840;8.276;2023-02-21T18:04:38;9.40;99.90
9949;DHT22;5013;51.840;8.276;2023-02-21T18:07:04;9.40;99.90
9949;DHT22;5013;51.840;8.276;2023-02-21T18:09:29;9.40;99.90
9949;DHT22;5013;51.840;8.276;2023-02-21T18:11:57;9.40;99.90
9949;DHT22;5013;51.840;8.276;2023-02-21T18:14:24;9.40;99.90
9949;DHT22;5013;51.840;8.276;2023-02-21T18:16:50;9.40;99.90
9949;DHT22;5013;51.840;8.276;2023-02-21T18:19:16;9.40;99.90
9949;DHT22;5013;51.840;8.276;2023-02-21T18:21:44;9.40;99.90
9949;DHT22;5013;51.840;8.276;2023-02-21T18:24:11;9.40;99.90
9949;DHT22;5013;51.840;8.276;2023-02-21T18:26:37;9.30;99.90
9949;DHT22;5013;51.840;8.276;2023-02-21T18:29:04;9.30;99.90
9949;DHT22;5013;51.840;8.276;2023-02-21T18:31:30;9.40;99.90
9949;DHT22;5013;51.840;8.276;2023-02-21T18:33:56;9.40;99.90
9949;DHT22;5013;51.840;8.276;2023-02-21T18:36:22;9.40;99.90
9949;DHT22;5013;51.840;8.276;2023-02-21T18:38:47;9.40;99.90
9949;DHT22;5013;51.840;8.276;2023-02-21T18:41:15;9.40;99.90
9949;DHT22;5013;51.840;8.276;2023-02-21T18:43:41;9.30;99.90
9949;DHT22;5013;51.840;8.276;2023-02-21T18:46:10;9.30;99.90
9949;DHT22;5013;51.840;8.276;2023-02-21T18:48:36;9.30;99.90
9949;DHT22;5013;51.840;8.276;2023-02-21T18:51:02;9.30;99.90
9949;DHT22;5013;51.840;8.276;2023-02-21T18:53:28;9.20;99.90
9949;DHT22;5013;51.840;8.276;2023-02-21T18:55:54;9.20;99.90
9949;DHT22;5013;51.840;8.276;2023-02-21T18:58:20;9.20;99.90
9949;DHT22;5013;51.840;8.276;2023-02-21T19:00:46;9.20;99.90
9949;DHT22;5013;51.840;8.276;2023-02-21T19:03:13;9.20;99.90
9949;DHT22;5013;51.840;8.276;2023-02-21T19:05:39;9.20;99.90
9949;DHT22;5013;51.840;8.276;2023-02-21T19:08:04;9.10;99.90
9949;DHT22;5013;51.840;8.276;2023-02-21T19:10:30;9.10;99.90
9949;DHT22;5013;51.840;8.276;2023-02-21T19:12:56;9.00;99.90
9949;DHT22;5013;51.840;8.276;2023-02-21T19:15:27;9.00;99.90
9949;DHT22;5013;51.840;8.276;2023-02-21T19:17:55;9.00;99.90
9949;DHT22;5013;51.840;8.276;2023-02-21T19:20:21;9.10;99.90
9949;DHT22;5013;51.840;8.276;2023-02-21T19:22:46;9.10;99.90
9949;DHT22;5013;51.840;8.276;2023-02-21T19:25:13;9.20;99.90
9949;DHT22;5013;51.840;8.276;2023-02-21T19:27:41;9.20;99.90
9949;DHT22;5013;51.840;8.276;2023-02-21T19:30:08;9.20;99.90
9949;DHT22;5013;51.840;8.276;2023-02-21T19:32:33;9.20;99.90
9949;DHT22;5013;51.840;8.276;2023-02-21T19:35:01;9.20;99.90
9949;DHT22;5013;51.840;8.276;2023-02-21T19:37:26;9.20;99.90
9949;DHT22;5013;51.840;8.276;2023-02-21T19:39:52;9.20;99.90
9949;DHT22;5013;51.840;8.276;2023-02-21T19:42:17;9.30;99.90
9949;DHT22;5013;51.840;8.276;2023-02-21T19:44:43;9.20;99.90
9949;DHT22;5013;51.840;8.276;2023-02-21T19:47:08;9.20;99.90
9949;DHT22;5013;51.840;8.276;2023-02-21T19:49:34;9.10;99.90
9949;DHT22;5013;51.840;8.276;2023-02-21T19:51:59;9.00;99.90
9949;DHT22;5013;51.840;8.276;2023-02-21T19:54:25;9.10;99.90